This is the latest recevied weather packets stored in our database for station/object DB0MOD. If no packets are shown the sender has not sent any weather packets the latest 10 day(s).
| Time | Temp. | Humidity | Pressure | Rain* | Wind** | Luminosity | Snow |
|---|---|---|---|---|---|---|---|
| 1778003343 | 11.67° C | 10% | 1007.6 hPa | 0 mm | - | - | - |
| 1778003043 | 11.67° C | 10% | 1007.5 hPa | 0 mm | - | - | - |
| 1778002743 | 11.67° C | 10% | 1007.5 hPa | 0 mm | - | - | - |
| 1778002443 | 11.67° C | 10% | 1007.4 hPa | 0 mm | - | - | - |
| 1778002143 | 11.11° C | 10% | 1007.3 hPa | 0 mm | - | - | - |
| 1778001843 | 11.67° C | 10% | 1007.5 hPa | 0 mm | - | - | - |
| 1778001543 | 11.67° C | 10% | 1007.4 hPa | 0 mm | - | - | - |
| 1778001244 | 11.67° C | 10% | 1007.4 hPa | 0 mm | - | - | - |
| 1778000943 | 11.67° C | 10% | 1007.4 hPa | 0 mm | - | - | - |
| 1778000343 | 11.67° C | 10% | 1007.5 hPa | 0 mm | - | - | - |
| 1778000043 | 11.67° C | 10% | 1007.6 hPa | 0 mm | - | - | - |
| 1777999743 | 11.67° C | 10% | 1007.6 hPa | 0 mm | - | - | - |
| 1777999443 | 11.11° C | 10% | 1007.6 hPa | 0 mm | - | - | - |
| 1777998843 | 11.11° C | 10% | 1007.7 hPa | 0 mm | - | - | - |
| 1777998544 | 11.11° C | 10% | 1007.9 hPa | 0 mm | - | - | - |
| 1777998243 | 11.67° C | 10% | 1007.8 hPa | 0 mm | - | - | - |
| 1777997943 | 12.78° C | 11% | 1008.2 hPa | 0 mm | - | - | - |
| 1777997643 | 13.89° C | 17% | 1008.2 hPa | 0 mm | - | - | - |
| 1777997343 | 14.44° C | 24% | 1008.3 hPa | 0 mm | - | - | - |
| 1777997043 | 15° C | 27% | 1008.3 hPa | 0 mm | - | - | - |
| 1777996743 | 15.56° C | 29% | 1008.4 hPa | 0 mm | - | - | - |
| 1777996443 | 15.56° C | 32% | 1008.4 hPa | 0 mm | - | - | - |
| 1777996143 | 16.11° C | 36% | 1008.3 hPa | 0 mm | - | - | - |
| 1777995843 | 16.67° C | 39% | 1008.2 hPa | 0 mm | - | - | - |
| 1777995543 | 17.22° C | 41% | 1008.3 hPa | 0 mm | - | - | - |
* Rain latest hour (hover to see other rain measurements)
** Current wind speed in m/s (hover to see current wind gust speed)